sensor_id;sensor_type;location;lat;lon;timestamp;pressure;altitude;pressure_sealevel;temperature;humidity
27040;BME280;14589;51.578;7.306;2024-01-30T00:00:05;102245.69;;;7.54;100.00
27040;BME280;14589;51.578;7.306;2024-01-30T00:02:35;102230.13;;;7.44;100.00
27040;BME280;14589;51.578;7.306;2024-01-30T00:05:06;102239.78;;;7.48;100.00
27040;BME280;14589;51.578;7.306;2024-01-30T00:07:37;102241.88;;;7.43;100.00
27040;BME280;14589;51.578;7.306;2024-01-30T00:10:08;102242.97;;;7.40;100.00
27040;BME280;14589;51.578;7.306;2024-01-30T00:12:38;102238.59;;;7.38;100.00
27040;BME280;14589;51.578;7.306;2024-01-30T00:15:08;102241.00;;;7.28;100.00
27040;BME280;14589;51.578;7.306;2024-01-30T00:17:40;102230.28;;;7.11;100.00
27040;BME280;14589;51.578;7.306;2024-01-30T00:20:10;102234.78;;;6.96;100.00
27040;BME280;14589;51.578;7.306;2024-01-30T00:22:40;102235.22;;;6.88;100.00
27040;BME280;14589;51.578;7.306;2024-01-30T00:25:11;102228.78;;;6.75;100.00
27040;BME280;14589;51.578;7.306;2024-01-30T00:27:41;102234.69;;;6.66;100.00
27040;BME280;14589;51.578;7.306;2024-01-30T00:30:12;102242.94;;;6.63;100.00
27040;BME280;14589;51.578;7.306;2024-01-30T00:32:42;102238.84;;;6.56;100.00
27040;BME280;14589;51.578;7.306;2024-01-30T00:35:13;102222.56;;;6.42;100.00
27040;BME280;14589;51.578;7.306;2024-01-30T00:37:43;102230.56;;;6.43;100.00
27040;BME280;14589;51.578;7.306;2024-01-30T00:40:14;102229.72;;;6.43;100.00
27040;BME280;14589;51.578;7.306;2024-01-30T00:42:45;102222.56;;;6.42;100.00
27040;BME280;14589;51.578;7.306;2024-01-30T00:45:16;102226.06;;;6.44;100.00
27040;BME280;14589;51.578;7.306;2024-01-30T00:47:46;102231.72;;;6.55;100.00
27040;BME280;14589;51.578;7.306;2024-01-30T00:50:17;102228.50;;;6.64;100.00
27040;BME280;14589;51.578;7.306;2024-01-30T00:52:47;102220.94;;;6.55;100.00
27040;BME280;14589;51.578;7.306;2024-01-30T00:55:18;102214.50;;;6.58;100.00
27040;BME280;14589;51.578;7.306;2024-01-30T00:57:48;102230.06;;;6.68;100.00
27040;BME280;14589;51.578;7.306;2024-01-30T01:00:18;102222.41;;;6.61;100.00
27040;BME280;14589;51.578;7.306;2024-01-30T01:02:51;102224.16;;;6.62;100.00
27040;BME280;14589;51.578;7.306;2024-01-30T01:05:21;102229.31;;;6.66;100.00
27040;BME280;14589;51.578;7.306;2024-01-30T01:07:51;102222.34;;;6.62;100.00
27040;BME280;14589;51.578;7.306;2024-01-30T01:10:22;102226.69;;;6.65;100.00
27040;BME280;14589;51.578;7.306;2024-01-30T01:12:52;102219.63;;;6.62;100.00
27040;BME280;14589;51.578;7.306;2024-01-30T01:15:23;102223.19;;;6.63;100.00
27040;BME280;14589;51.578;7.306;2024-01-30T01:17:53;102220.78;;;6.58;100.00
27040;BME280;14589;51.578;7.306;2024-01-30T01:20:23;102226.31;;;6.55;100.00
27040;BME280;14589;51.578;7.306;2024-01-30T01:22:54;102216.53;;;6.54;100.00
27040;BME280;14589;51.578;7.306;2024-01-30T01:25:24;102215.72;;;6.52;100.00
27040;BME280;14589;51.578;7.306;2024-01-30T01:27:54;102224.97;;;6.48;100.00
27040;BME280;14589;51.578;7.306;2024-01-30T01:30:25;102227.88;;;6.43;100.00
27040;BME280;14589;51.578;7.306;2024-01-30T01:32:56;102216.00;;;6.47;100.00
27040;BME280;14589;51.578;7.306;2024-01-30T01:35:27;102237.09;;;6.55;100.00
27040;BME280;14589;51.578;7.306;2024-01-30T01:37:58;102232.78;;;6.53;100.00
27040;BME280;14589;51.578;7.306;2024-01-30T01:40:30;102223.28;;;6.45;100.00
27040;BME280;14589;51.578;7.306;2024-01-30T01:43:02;102215.38;;;6.42;100.00
27040;BME280;14589;51.578;7.306;2024-01-30T01:45:33;102224.44;;;6.41;100.00
27040;BME280;14589;51.578;7.306;2024-01-30T01:48:04;102225.59;;;6.36;100.00
27040;BME280;14589;51.578;7.306;2024-01-30T01:50:35;102219.00;;;6.26;100.00
27040;BME280;14589;51.578;7.306;2024-01-30T01:53:07;102224.22;;;6.29;100.00
27040;BME280;14589;51.578;7.306;2024-01-30T01:55:38;102222.91;;;6.36;100.00
27040;BME280;14589;51.578;7.306;2024-01-30T01:58:09;102204.50;;;6.28;100.00
27040;BME280;14589;51.578;7.306;2024-01-30T02:00:40;102216.56;;;6.37;100.00
27040;BME280;14589;51.578;7.306;2024-01-30T02:03:13;102214.22;;;6.31;100.00
27040;BME280;14589;51.578;7.306;2024-01-30T02:05:43;102201.81;;;6.28;100.00
27040;BME280;14589;51.578;7.306;2024-01-30T02:08:14;102204.75;;;6.24;100.00
27040;BME280;14589;51.578;7.306;2024-01-30T02:10:44;102208.81;;;6.15;100.00
27040;BME280;14589;51.578;7.306;2024-01-30T02:13:15;102203.59;;;6.12;100.00
27040;BME280;14589;51.578;7.306;2024-01-30T02:15:49;102197.44;;;6.10;100.00
27040;BME280;14589;51.578;7.306;2024-01-30T02:18:20;102200.22;;;6.08;100.00
27040;BME280;14589;51.578;7.306;2024-01-30T02:20:56;102207.69;;;6.03;100.00
27040;BME280;14589;51.578;7.306;2024-01-30T02:23:27;102186.28;;;6.00;100.00
27040;BME280;14589;51.578;7.306;2024-01-30T02:25:57;102204.97;;;6.03;100.00
27040;BME280;14589;51.578;7.306;2024-01-30T02:28:28;102195.75;;;5.92;100.00
27040;BME280;14589;51.578;7.306;2024-01-30T02:30:58;102192.00;;;5.94;100.00
27040;BME280;14589;51.578;7.306;2024-01-30T02:33:28;102193.69;;;5.97;100.00
27040;BME280;14589;51.578;7.306;2024-01-30T02:35:59;102190.38;;;5.92;100.00
27040;BME280;14589;51.578;7.306;2024-01-30T02:38:29;102190.25;;;5.93;100.00
27040;BME280;14589;51.578;7.306;2024-01-30T02:40:59;102172.69;;;5.86;100.00
27040;BME280;14589;51.578;7.306;2024-01-30T02:43:30;102173.72;;;5.84;100.00
27040;BME280;14589;51.578;7.306;2024-01-30T02:46:00;102177.44;;;5.81;100.00
27040;BME280;14589;51.578;7.306;2024-01-30T02:48:31;102181.00;;;5.82;100.00
27040;BME280;14589;51.578;7.306;2024-01-30T02:51:01;102179.44;;;5.78;100.00
27040;BME280;14589;51.578;7.306;2024-01-30T02:53:31;102178.38;;;5.80;100.00
27040;BME280;14589;51.578;7.306;2024-01-30T02:56:02;102163.03;;;5.82;100.00
27040;BME280;14589;51.578;7.306;2024-01-30T02:58:33;102154.09;;;5.82;100.00
27040;BME280;14589;51.578;7.306;2024-01-30T03:01:03;102158.50;;;6.00;100.00
27040;BME280;14589;51.578;7.306;2024-01-30T03:03:34;102153.22;;;5.98;100.00
27040;BME280;14589;51.578;7.306;2024-01-30T03:06:06;102158.16;;;6.06;100.00
27040;BME280;14589;51.578;7.306;2024-01-30T03:08:37;102159.75;;;6.10;100.00
27040;BME280;14589;51.578;7.306;2024-01-30T03:11:07;102160.97;;;6.20;100.00
27040;BME280;14589;51.578;7.306;2024-01-30T03:13:37;102147.41;;;6.22;100.00
27040;BME280;14589;51.578;7.306;2024-01-30T03:16:08;102148.00;;;6.27;100.00
27040;BME280;14589;51.578;7.306;2024-01-30T03:18:38;102152.72;;;6.23;100.00
27040;BME280;14589;51.578;7.306;2024-01-30T03:21:09;102142.78;;;6.24;100.00
27040;BME280;14589;51.578;7.306;2024-01-30T03:23:39;102143.13;;;6.18;100.00
27040;BME280;14589;51.578;7.306;2024-01-30T03:26:10;102140.97;;;6.24;100.00
27040;BME280;14589;51.578;7.306;2024-01-30T03:28:42;102141.94;;;6.23;100.00
27040;BME280;14589;51.578;7.306;2024-01-30T03:31:15;102135.94;;;6.34;100.00
27040;BME280;14589;51.578;7.306;2024-01-30T03:33:45;102139.31;;;6.37;100.00
27040;BME280;14589;51.578;7.306;2024-01-30T03:36:16;102143.25;;;6.47;100.00
27040;BME280;14589;51.578;7.306;2024-01-30T03:38:47;102130.88;;;6.43;100.00
27040;BME280;14589;51.578;7.306;2024-01-30T03:41:17;102135.06;;;6.49;100.00
27040;BME280;14589;51.578;7.306;2024-01-30T03:43:47;102130.81;;;6.45;100.00
27040;BME280;14589;51.578;7.306;2024-01-30T03:46:18;102133.81;;;6.55;100.00
27040;BME280;14589;51.578;7.306;2024-01-30T03:48:49;102134.97;;;6.50;100.00
27040;BME280;14589;51.578;7.306;2024-01-30T03:51:19;102129.66;;;6.49;100.00
27040;BME280;14589;51.578;7.306;2024-01-30T03:53:49;102126.72;;;6.54;100.00
27040;BME280;14589;51.578;7.306;2024-01-30T03:56:20;102118.81;;;6.50;100.00
27040;BME280;14589;51.578;7.306;2024-01-30T03:58:50;102116.97;;;6.51;100.00
27040;BME280;14589;51.578;7.306;2024-01-30T04:01:21;102122.44;;;6.49;100.00
27040;BME280;14589;51.578;7.306;2024-01-30T04:03:51;102126.25;;;6.61;100.00
27040;BME280;14589;51.578;7.306;2024-01-30T04:06:21;102109.50;;;6.56;100.00
27040;BME280;14589;51.578;7.306;2024-01-30T04:08:52;102121.06;;;6.58;100.00
27040;BME280;14589;51.578;7.306;2024-01-30T04:11:22;102115.41;;;6.63;100.00
27040;BME280;14589;51.578;7.306;2024-01-30T04:13:53;102102.63;;;6.66;100.00
27040;BME280;14589;51.578;7.306;2024-01-30T04:16:23;102118.53;;;6.71;100.00
27040;BME280;14589;51.578;7.306;2024-01-30T04:18:53;102093.66;;;6.66;100.00
27040;BME280;14589;51.578;7.306;2024-01-30T04:21:24;102108.78;;;6.68;100.00
27040;BME280;14589;51.578;7.306;2024-01-30T04:23:54;102109.66;;;6.69;100.00
27040;BME280;14589;51.578;7.306;2024-01-30T04:26:25;102107.09;;;6.81;100.00
27040;BME280;14589;51.578;7.306;2024-01-30T04:28:55;102101.53;;;6.84;100.00
27040;BME280;14589;51.578;7.306;2024-01-30T04:31:25;102102.66;;;6.80;100.00
27040;BME280;14589;51.578;7.306;2024-01-30T04:33:56;102095.00;;;6.88;100.00
27040;BME280;14589;51.578;7.306;2024-01-30T04:36:26;102088.72;;;6.88;100.00
27040;BME280;14589;51.578;7.306;2024-01-30T04:38:56;102097.03;;;6.85;100.00
27040;BME280;14589;51.578;7.306;2024-01-30T04:41:27;102103.75;;;6.92;100.00
27040;BME280;14589;51.578;7.306;2024-01-30T04:44:01;102082.59;;;7.00;100.00
27040;BME280;14589;51.578;7.306;2024-01-30T04:46:32;102077.88;;;7.04;100.00
27040;BME280;14589;51.578;7.306;2024-01-30T04:49:04;102097.03;;;6.99;100.00
27040;BME280;14589;51.578;7.306;2024-01-30T04:51:35;102088.28;;;7.10;100.00
27040;BME280;14589;51.578;7.306;2024-01-30T04:54:05;102091.34;;;7.04;100.00
27040;BME280;14589;51.578;7.306;2024-01-30T04:56:36;102093.97;;;7.05;100.00
27040;BME280;14589;51.578;7.306;2024-01-30T04:59:06;102090.91;;;7.11;100.00
27040;BME280;14589;51.578;7.306;2024-01-30T05:01:38;102084.28;;;7.31;100.00
27040;BME280;14589;51.578;7.306;2024-01-30T05:04:09;102101.16;;;7.35;100.00
27040;BME280;14589;51.578;7.306;2024-01-30T05:06:39;102100.56;;;7.29;100.00
27040;BME280;14589;51.578;7.306;2024-01-30T05:09:10;102101.44;;;7.30;100.00
27040;BME280;14589;51.578;7.306;2024-01-30T05:11:40;102090.56;;;7.31;100.00
27040;BME280;14589;51.578;7.306;2024-01-30T05:14:11;102077.91;;;7.18;100.00
27040;BME280;14589;51.578;7.306;2024-01-30T05:16:42;102094.69;;;7.23;100.00
27040;BME280;14589;51.578;7.306;2024-01-30T05:19:16;102093.22;;;7.17;100.00
27040;BME280;14589;51.578;7.306;2024-01-30T05:21:47;102083.13;;;7.21;100.00
27040;BME280;14589;51.578;7.306;2024-01-30T05:24:17;102082.06;;;7.23;100.00
27040;BME280;14589;51.578;7.306;2024-01-30T05:26:48;102085.72;;;7.22;100.00
27040;BME280;14589;51.578;7.306;2024-01-30T05:29:20;102075.03;;;7.21;100.00
27040;BME280;14589;51.578;7.306;2024-01-30T05:31:50;102085.75;;;7.37;100.00
27040;BME280;14589;51.578;7.306;2024-01-30T05:34:21;102093.84;;;7.37;100.00
27040;BME280;14589;51.578;7.306;2024-01-30T05:36:51;102087.56;;;7.36;100.00
27040;BME280;14589;51.578;7.306;2024-01-30T05:39:21;102089.69;;;7.31;100.00
27040;BME280;14589;51.578;7.306;2024-01-30T05:41:52;102080.72;;;7.30;100.00
27040;BME280;14589;51.578;7.306;2024-01-30T05:44:22;102098.28;;;7.38;100.00
27040;BME280;14589;51.578;7.306;2024-01-30T05:46:52;102093.84;;;7.37;100.00
27040;BME280;14589;51.578;7.306;2024-01-30T05:49:23;102089.91;;;7.28;100.00
27040;BME280;14589;51.578;7.306;2024-01-30T05:51:53;102085.63;;;7.24;100.00
27040;BME280;14589;51.578;7.306;2024-01-30T05:54:24;102094.41;;;7.27;100.00
27040;BME280;14589;51.578;7.306;2024-01-30T05:56:54;102090.84;;;7.41;100.00
27040;BME280;14589;51.578;7.306;2024-01-30T05:59:25;102088.28;;;7.40;100.00
27040;BME280;14589;51.578;7.306;2024-01-30T06:01:55;102087.19;;;7.28;100.00
27040;BME280;14589;51.578;7.306;2024-01-30T06:04:25;102089.97;;;7.26;100.00
27040;BME280;14589;51.578;7.306;2024-01-30T06:06:55;102086.50;;;7.24;100.00
27040;BME280;14589;51.578;7.306;2024-01-30T06:09:26;102085.91;;;7.19;100.00
27040;BME280;14589;51.578;7.306;2024-01-30T06:11:56;102091.22;;;7.21;100.00
27040;BME280;14589;51.578;7.306;2024-01-30T06:14:27;102093.16;;;7.33;100.00
27040;BME280;14589;51.578;7.306;2024-01-30T06:16:57;102084.38;;;7.29;100.00
27040;BME280;14589;51.578;7.306;2024-01-30T06:19:27;102093.06;;;7.20;100.00
27040;BME280;14589;51.578;7.306;2024-01-30T06:21:58;102087.66;;;7.35;100.00
27040;BME280;14589;51.578;7.306;2024-01-30T06:24:28;102085.25;;;7.30;100.00
27040;BME280;14589;51.578;7.306;2024-01-30T06:26:58;102093.75;;;7.38;100.00
27040;BME280;14589;51.578;7.306;2024-01-30T06:29:29;102077.19;;;7.44;100.00
27040;BME280;14589;51.578;7.306;2024-01-30T06:31:59;102080.38;;;7.51;100.00
27040;BME280;14589;51.578;7.306;2024-01-30T06:34:30;102086.06;;;7.46;100.00
27040;BME280;14589;51.578;7.306;2024-01-30T06:37:00;102075.44;;;7.43;100.00
27040;BME280;14589;51.578;7.306;2024-01-30T06:39:30;102082.75;;;7.55;100.00
27040;BME280;14589;51.578;7.306;2024-01-30T06:42:01;102091.56;;;7.59;100.00
27040;BME280;14589;51.578;7.306;2024-01-30T06:44:31;102081.97;;;7.53;100.00
27040;BME280;14589;51.578;7.306;2024-01-30T06:47:02;102092.13;;;7.64;100.00
27040;BME280;14589;51.578;7.306;2024-01-30T06:49:32;102091.84;;;7.68;100.00
27040;BME280;14589;51.578;7.306;2024-01-30T06:52:02;102082.78;;;7.69;100.00
27040;BME280;14589;51.578;7.306;2024-01-30T06:54:33;102087.31;;;7.69;100.00
27040;BME280;14589;51.578;7.306;2024-01-30T06:57:04;102080.94;;;7.70;100.00
27040;BME280;14589;51.578;7.306;2024-01-30T06:59:34;102075.53;;;7.70;100.00
27040;BME280;14589;51.578;7.306;2024-01-30T07:02:05;102077.56;;;7.66;100.00
27040;BME280;14589;51.578;7.306;2024-01-30T07:04:36;102084.69;;;7.67;100.00
27040;BME280;14589;51.578;7.306;2024-01-30T07:07:07;102080.81;;;7.71;100.00
27040;BME280;14589;51.578;7.306;2024-01-30T07:09:42;102079.78;;;7.74;100.00
27040;BME280;14589;51.578;7.306;2024-01-30T07:12:12;102076.69;;;7.80;100.00
27040;BME280;14589;51.578;7.306;2024-01-30T07:14:43;102072.16;;;7.81;100.00
27040;BME280;14589;51.578;7.306;2024-01-30T07:17:13;102074.69;;;7.84;100.00
27040;BME280;14589;51.578;7.306;2024-01-30T07:19:44;102085.91;;;7.90;100.00
27040;BME280;14589;51.578;7.306;2024-01-30T07:26:06;102096.06;;;8.01;100.00
27040;BME280;14589;51.578;7.306;2024-01-30T07:28:37;102100.28;;;8.05;100.00
27040;BME280;14589;51.578;7.306;2024-01-30T07:31:07;102092.97;;;8.07;100.00
27040;BME280;14589;51.578;7.306;2024-01-30T07:33:37;102092.97;;;8.07;100.00
27040;BME280;14589;51.578;7.306;2024-01-30T07:36:08;102114.66;;;8.05;100.00
27040;BME280;14589;51.578;7.306;2024-01-30T07:38:38;102114.56;;;8.07;100.00
27040;BME280;14589;51.578;7.306;2024-01-30T07:41:09;102102.22;;;8.03;100.00
27040;BME280;14589;51.578;7.306;2024-01-30T07:43:39;102105.91;;;8.02;100.00
27040;BME280;14589;51.578;7.306;2024-01-30T07:46:09;102109.56;;;8.01;100.00
27040;BME280;14589;51.578;7.306;2024-01-30T07:48:40;102105.38;;;8.09;100.00
27040;BME280;14589;51.578;7.306;2024-01-30T07:51:10;102097.19;;;8.11;100.00
27040;BME280;14589;51.578;7.306;2024-01-30T07:53:40;102109.72;;;8.26;100.00
27040;BME280;14589;51.578;7.306;2024-01-30T07:56:12;102086.53;;;8.22;100.00
27040;BME280;14589;51.578;7.306;2024-01-30T07:58:42;102101.47;;;8.28;100.00
27040;BME280;14589;51.578;7.306;2024-01-30T08:01:15;102103.16;;;8.30;100.00
27040;BME280;14589;51.578;7.306;2024-01-30T08:03:45;102102.47;;;8.27;100.00
27040;BME280;14589;51.578;7.306;2024-01-30T08:06:15;102110.84;;;8.50;99.99
27040;BME280;14589;51.578;7.306;2024-01-30T08:08:46;102119.91;;;8.49;99.45
27040;BME280;14589;51.578;7.306;2024-01-30T08:11:16;102121.94;;;8.46;100.00
27040;BME280;14589;51.578;7.306;2024-01-30T08:13:47;102140.91;;;8.59;99.27
27040;BME280;14589;51.578;7.306;2024-01-30T08:16:17;102114.03;;;8.43;99.95
27040;BME280;14589;51.578;7.306;2024-01-30T08:18:47;102124.84;;;8.43;100.00
27040;BME280;14589;51.578;7.306;2024-01-30T08:21:18;102137.09;;;8.48;100.00
27040;BME280;14589;51.578;7.306;2024-01-30T08:23:48;102127.16;;;8.49;100.00
27040;BME280;14589;51.578;7.306;2024-01-30T08:26:19;102126.81;;;8.68;99.98
27040;BME280;14589;51.578;7.306;2024-01-30T08:28:49;102129.13;;;8.60;99.25
27040;BME280;14589;51.578;7.306;2024-01-30T08:31:20;102128.09;;;8.62;100.00
27040;BME280;14589;51.578;7.306;2024-01-30T08:33:50;102139.34;;;8.69;100.00
27040;BME280;14589;51.578;7.306;2024-01-30T08:36:21;102133.31;;;8.78;99.99
27040;BME280;14589;51.578;7.306;2024-01-30T08:38:51;102131.91;;;8.72;100.00
27040;BME280;14589;51.578;7.306;2024-01-30T08:41:22;102121.06;;;8.72;100.00
27040;BME280;14589;51.578;7.306;2024-01-30T08:43:52;102124.66;;;8.73;99.70
27040;BME280;14589;51.578;7.306;2024-01-30T08:46:22;102125.34;;;8.76;100.00
27040;BME280;14589;51.578;7.306;2024-01-30T08:48:53;102116.13;;;8.79;99.53
27040;BME280;14589;51.578;7.306;2024-01-30T08:51:23;102134.88;;;8.82;99.89
27040;BME280;14589;51.578;7.306;2024-01-30T08:53:53;102135.41;;;8.87;100.00
27040;BME280;14589;51.578;7.306;2024-01-30T08:56:24;102142.81;;;8.98;99.25
27040;BME280;14589;51.578;7.306;2024-01-30T08:58:54;102122.22;;;8.95;99.01
27040;BME280;14589;51.578;7.306;2024-01-30T09:01:25;102132.63;;;9.01;98.92
27040;BME280;14589;51.578;7.306;2024-01-30T09:03:55;102142.47;;;9.02;99.03
27040;BME280;14589;51.578;7.306;2024-01-30T09:06:26;102141.97;;;9.10;98.92
27040;BME280;14589;51.578;7.306;2024-01-30T09:08:58;102143.91;;;9.08;99.16
27040;BME280;14589;51.578;7.306;2024-01-30T09:11:28;102137.75;;;9.06;98.62
27040;BME280;14589;51.578;7.306;2024-01-30T09:13:58;102146.41;;;9.11;98.88
27040;BME280;14589;51.578;7.306;2024-01-30T09:16:29;102139.47;;;9.07;98.84
27040;BME280;14589;51.578;7.306;2024-01-30T09:18:59;102143.19;;;9.18;98.77
27040;BME280;14589;51.578;7.306;2024-01-30T09:21:30;102141.34;;;9.19;98.55
27040;BME280;14589;51.578;7.306;2024-01-30T09:24:03;102146.22;;;9.26;99.47
27040;BME280;14589;51.578;7.306;2024-01-30T09:26:36;102148.50;;;9.32;98.45
27040;BME280;14589;51.578;7.306;2024-01-30T09:29:07;102154.50;;;9.38;98.57
27040;BME280;14589;51.578;7.306;2024-01-30T09:31:37;102158.16;;;9.37;98.41
27040;BME280;14589;51.578;7.306;2024-01-30T09:34:08;102159.69;;;9.41;98.56
27040;BME280;14589;51.578;7.306;2024-01-30T09:36:38;102165.53;;;9.47;98.88
27040;BME280;14589;51.578;7.306;2024-01-30T09:39:09;102165.22;;;9.52;97.73
27040;BME280;14589;51.578;7.306;2024-01-30T09:41:49;102171.16;;;9.57;97.03
27040;BME280;14589;51.578;7.306;2024-01-30T09:44:25;102166.50;;;9.59;97.63
27040;BME280;14589;51.578;7.306;2024-01-30T09:46:58;102160.22;;;9.58;98.04
27040;BME280;14589;51.578;7.306;2024-01-30T09:49:34;102169.34;;;9.70;97.92
27040;BME280;14589;51.578;7.306;2024-01-30T09:52:05;102160.78;;;9.76;98.19
27040;BME280;14589;51.578;7.306;2024-01-30T09:54:38;102170.75;;;9.88;97.35
27040;BME280;14589;51.578;7.306;2024-01-30T09:57:08;102162.19;;;9.94;96.97
27040;BME280;14589;51.578;7.306;2024-01-30T09:59:41;102161.63;;;10.14;95.64
27040;BME280;14589;51.578;7.306;2024-01-30T10:02:13;102160.75;;;10.27;94.66
27040;BME280;14589;51.578;7.306;2024-01-30T10:04:43;102168.25;;;10.36;93.66
27040;BME280;14589;51.578;7.306;2024-01-30T10:07:14;102158.78;;;10.41;93.77
27040;BME280;14589;51.578;7.306;2024-01-30T10:09:45;102158.50;;;10.57;92.91
27040;BME280;14589;51.578;7.306;2024-01-30T10:12:16;102146.22;;;10.64;91.49
27040;BME280;14589;51.578;7.306;2024-01-30T10:14:46;102165.78;;;10.80;90.68
27040;BME280;14589;51.578;7.306;2024-01-30T10:17:17;102153.38;;;10.89;90.09
27040;BME280;14589;51.578;7.306;2024-01-30T10:19:47;102165.31;;;10.86;89.01
27040;BME280;14589;51.578;7.306;2024-01-30T10:22:18;102161.31;;;10.92;89.82
27040;BME280;14589;51.578;7.306;2024-01-30T10:24:48;102156.81;;;11.04;88.94
27040;BME280;14589;51.578;7.306;2024-01-30T10:27:26;102162.97;;;11.41;86.48
27040;BME280;14589;51.578;7.306;2024-01-30T10:29:57;102157.88;;;11.71;85.02
27040;BME280;14589;51.578;7.306;2024-01-30T10:32:28;102148.88;;;12.04;80.67
27040;BME280;14589;51.578;7.306;2024-01-30T10:34:58;102142.22;;;12.08;81.98
27040;BME280;14589;51.578;7.306;2024-01-30T10:37:29;102144.94;;;12.19;79.85
27040;BME280;14589;51.578;7.306;2024-01-30T10:40:03;102153.94;;;12.42;78.42
27040;BME280;14589;51.578;7.306;2024-01-30T10:42:36;102143.53;;;12.47;78.63
27040;BME280;14589;51.578;7.306;2024-01-30T10:45:10;102144.66;;;12.55;77.91
27040;BME280;14589;51.578;7.306;2024-01-30T10:47:50;102152.94;;;12.54;76.96
27040;BME280;14589;51.578;7.306;2024-01-30T10:50:21;102150.44;;;12.62;76.67
27040;BME280;14589;51.578;7.306;2024-01-30T10:52:55;102142.59;;;12.80;74.87
27040;BME280;14589;51.578;7.306;2024-01-30T10:55:27;102158.53;;;12.84;75.11
27040;BME280;14589;51.578;7.306;2024-01-30T10:57:59;102149.34;;;12.96;74.22
27040;BME280;14589;51.578;7.306;2024-01-30T11:00:30;102144.59;;;13.10;73.82
27040;BME280;14589;51.578;7.306;2024-01-30T11:03:03;102150.56;;;13.35;72.99
27040;BME280;14589;51.578;7.306;2024-01-30T11:05:34;102165.34;;;13.33;73.20
27040;BME280;14589;51.578;7.306;2024-01-30T11:08:14;102164.59;;;13.31;72.45
27040;BME280;14589;51.578;7.306;2024-01-30T11:10:47;102162.59;;;13.54;70.99
27040;BME280;14589;51.578;7.306;2024-01-30T11:13:19;102166.78;;;13.58;71.15
27040;BME280;14589;51.578;7.306;2024-01-30T11:15:49;102165.25;;;13.65;70.75
27040;BME280;14589;51.578;7.306;2024-01-30T11:18:23;102148.16;;;13.21;73.47
27040;BME280;14589;51.578;7.306;2024-01-30T11:21:00;102168.91;;;13.33;72.66
27040;BME280;14589;51.578;7.306;2024-01-30T11:23:33;102166.19;;;13.33;73.32
27040;BME280;14589;51.578;7.306;2024-01-30T11:26:04;102161.75;;;13.32;73.31
27040;BME280;14589;51.578;7.306;2024-01-30T11:28:34;102143.38;;;13.34;73.32
27040;BME280;14589;51.578;7.306;2024-01-30T11:31:06;102148.06;;;13.44;73.91
27040;BME280;14589;51.578;7.306;2024-01-30T11:33:41;102154.28;;;13.14;76.14
27040;BME280;14589;51.578;7.306;2024-01-30T11:36:13;102149.69;;;13.35;74.11
27040;BME280;14589;51.578;7.306;2024-01-30T11:38:44;102146.66;;;13.49;73.97
27040;BME280;14589;51.578;7.306;2024-01-30T11:41:17;102164.06;;;13.58;73.79
27040;BME280;14589;51.578;7.306;2024-01-30T11:43:52;102161.03;;;13.51;72.72
27040;BME280;14589;51.578;7.306;2024-01-30T11:46:25;102173.22;;;13.36;74.79
27040;BME280;14589;51.578;7.306;2024-01-30T11:48:55;102171.81;;;13.10;76.35
27040;BME280;14589;51.578;7.306;2024-01-30T11:51:26;102175.16;;;13.24;75.88
27040;BME280;14589;51.578;7.306;2024-01-30T11:53:57;102178.28;;;13.20;76.55
27040;BME280;14589;51.578;7.306;2024-01-30T11:56:27;102164.16;;;13.15;76.04
27040;BME280;14589;51.578;7.306;2024-01-30T11:58:58;102174.41;;;13.22;76.60
27040;BME280;14589;51.578;7.306;2024-01-30T12:01:30;102174.00;;;13.27;76.45
27040;BME280;14589;51.578;7.306;2024-01-30T12:04:01;102166.50;;;13.19;76.17
27040;BME280;14589;51.578;7.306;2024-01-30T12:06:33;102173.19;;;13.15;77.20
27040;BME280;14589;51.578;7.306;2024-01-30T12:09:04;102177.66;;;13.16;76.74
27040;BME280;14589;51.578;7.306;2024-01-30T12:11:44;102183.41;;;12.91;79.12
27040;BME280;14589;51.578;7.306;2024-01-30T12:14:16;102174.81;;;13.07;77.79
27040;BME280;14589;51.578;7.306;2024-01-30T12:16:49;102173.47;;;13.12;78.30
27040;BME280;14589;51.578;7.306;2024-01-30T12:19:22;102174.94;;;13.05;78.48
27040;BME280;14589;51.578;7.306;2024-01-30T12:21:57;102184.44;;;13.11;77.79
27040;BME280;14589;51.578;7.306;2024-01-30T12:24:29;102171.13;;;12.96;78.87
27040;BME280;14589;51.578;7.306;2024-01-30T12:27:02;102173.81;;;12.76;80.91
27040;BME280;14589;51.578;7.306;2024-01-30T12:29:33;102164.81;;;12.64;81.38
27040;BME280;14589;51.578;7.306;2024-01-30T12:32:04;102174.03;;;12.73;80.70
27040;BME280;14589;51.578;7.306;2024-01-30T12:34:40;102169.59;;;12.72;81.46
27040;BME280;14589;51.578;7.306;2024-01-30T12:37:12;102174.44;;;12.68;82.58
27040;BME280;14589;51.578;7.306;2024-01-30T12:39:42;102175.03;;;12.72;82.38
27040;BME280;14589;51.578;7.306;2024-01-30T12:42:13;102183.19;;;12.72;81.91
27040;BME280;14589;51.578;7.306;2024-01-30T12:44:44;102178.03;;;12.69;83.31
27040;BME280;14589;51.578;7.306;2024-01-30T12:47:14;102172.06;;;12.75;82.47
27040;BME280;14589;51.578;7.306;2024-01-30T12:49:46;102168.38;;;12.65;82.77
27040;BME280;14589;51.578;7.306;2024-01-30T12:52:16;102183.09;;;12.62;84.35
27040;BME280;14589;51.578;7.306;2024-01-30T12:54:48;102178.66;;;12.61;84.34
27040;BME280;14589;51.578;7.306;2024-01-30T12:57:18;102182.47;;;12.70;84.32
27040;BME280;14589;51.578;7.306;2024-01-30T12:59:49;102162.56;;;12.69;82.68
27040;BME280;14589;51.578;7.306;2024-01-30T13:02:19;102164.53;;;12.67;83.12
27040;BME280;14589;51.578;7.306;2024-01-30T13:04:50;102180.97;;;12.77;82.65
27040;BME280;14589;51.578;7.306;2024-01-30T13:07:20;102175.91;;;12.72;82.55
27040;BME280;14589;51.578;7.306;2024-01-30T13:09:50;102158.22;;;12.67;82.75
27040;BME280;14589;51.578;7.306;2024-01-30T13:12:21;102172.31;;;12.72;82.98